Friant, California
Current Conditions -  °F | °C
As of 2:53 AM on Sunday 23 Nov 2014 (Local Time) from KFAT Reporting Station
Haze Haze  
Wind Chill: 52°   Ceiling: 500
Heat Index: 52°   Visibility: 3mi
Dew Point: 50°   Wind: 10mph
Humidity: 93%   Direction: 290°WNW
Pressure: 30.18"   Gusts: NA
Location:  36.99°N, 119.71°W
Report Text: KFAT 231053Z 29009KT 3SM BR OVC005 11/10 A3018 RMK AO2 SLP219 T01110100
Loading
Personal Weather Stations






























Interactive Weather Map New forecast layout! Learn more

10-Day Weather Forecast

Advertisements
Track Severe Weather on mobile